»·PEaware :: N6980J KSBP-KSMX

N6980J :: KSBP-KSMX

FLIGHT INFORMATION

Flight Status: Arrived
Operator: Privately registered:
United States
More flights under this callsign
Pilot: Patrick R. (20383)
Aircraft: PIPER PA-28 CHEROKEE ARCHER
(P28A)
More flights by this aircraft type
Origin: KSBP San Luis Co Regl
United States
Destination: KSMX Santa Maria Pub/Capt Hancock
United States
More flights between these airports :: More routes between these airports
Route: KSBP GLJ KSMX
File this flight plan on PilotEdge
Remarks:
Altitude:
(Current/Filed)
3,500ft
Speed:
(Current/Filed)
100kts
Departed: 01-Aug-20 06:44 PM
Arrived: 01-Aug-20 07:05 PM
Distance/Time
Traveled:
22nm/0:20
Distance/Time
To Go:
Arrived

Flight Plot

Page will automatically refresh every two minutes.


Map Options




Map Legend


Flown Route
Filed Route
Departure Airport
Arrival Airport
Navaid (VOR, NDB)
Fix

Horizontal Profiles

Position Reports

Time Latitude Longitude Heading Altitude Ground
Speed
01-Aug-20 18:29 35.238418 -120.639859 306 215ft 0kts
01-Aug-20 18:30 35.238418 -120.639859 306 215ft 0kts
01-Aug-20 18:31 35.238418 -120.639859 306 215ft 0kts
01-Aug-20 18:32 35.238418 -120.639859 306 215ft 0kts
01-Aug-20 18:33 35.238418 -120.639859 306 215ft 0kts
01-Aug-20 18:34 35.238418 -120.639859 306 215ft 0kts
01-Aug-20 18:35 35.238418 -120.639859 306 215ft 0kts
01-Aug-20 18:36 35.238418 -120.639859 306 215ft 0kts
01-Aug-20 18:37 35.238418 -120.639859 306 215ft 0kts
01-Aug-20 18:38 35.238418 -120.639859 306 215ft 0kts
01-Aug-20 18:39 35.237933 -120.640126 127 215ft 12kts
01-Aug-20 18:40 35.233933 -120.633141 123 215ft 29kts
01-Aug-20 18:41 35.233185 -120.632353 213 215ft 0kts
01-Aug-20 18:42 35.233149 -120.632382 213 215ft 2kts
01-Aug-20 18:43 35.239401 -120.644233 302 363ft 81kts
01-Aug-20 18:44 35.239437 -120.663329 217 1154ft 82kts
01-Aug-20 18:45 35.215725 -120.662468 160 1830ft 96kts
01-Aug-20 18:46 35.195169 -120.640609 129 2489ft 100kts
01-Aug-20 18:47 35.177419 -120.615005 163 3084ft 98kts
01-Aug-20 18:48 35.151018 -120.603904 166 3366ft 108kts
01-Aug-20 18:49 35.122796 -120.590768 162 3485ft 106kts
01-Aug-20 18:50 35.093941 -120.576939 166 3695ft 113kts
01-Aug-20 18:51 35.062378 -120.566281 172 3604ft 116kts
01-Aug-20 18:52 35.046406 -120.574828 326 3256ft 105kts
01-Aug-20 18:53 35.071864 -120.587307 326 3067ft 98kts
01-Aug-20 18:54 35.069533 -120.573046 175 3077ft 114kts
01-Aug-20 18:55 35.039121 -120.565669 159 2470ft 113kts
01-Aug-20 18:56 35.010254 -120.549188 149 1798ft 119kts
01-Aug-20 18:57 34.980762 -120.532664 155 1336ft 113kts
01-Aug-20 18:58 34.951685 -120.521155 177 1407ft 108kts
01-Aug-20 18:59 34.921708 -120.514640 170 1461ft 110kts
01-Aug-20 19:00 34.893084 -120.500663 151 1516ft 111kts
01-Aug-20 19:01 34.887172 -120.466947 132 1343ft 107kts
01-Aug-20 19:02 34.871339 -120.439235 47 1112ft 98kts
01-Aug-20 19:03 34.886506 -120.438566 316 538ft 65kts
01-Aug-20 19:04 34.896637 -120.450304 349 264ft 14kts
01-Aug-20 19:05 34.898018 -120.450291 1 264ft 6kts
01-Aug-20 19:06 34.901052 -120.451758 330 264ft 12kts
01-Aug-20 19:07 34.901250 -120.452141 227 264ft 0kts
01-Aug-20 19:08 34.901250 -120.452141 227 264ft 0kts
01-Aug-20 19:09 34.901250 -120.452141 227 264ft 0kts
01-Aug-20 19:10 34.901250 -120.452141 227 264ft 0kts
01-Aug-20 19:11 34.901250 -120.452141 227 264ft 0kts
01-Aug-20 19:12 34.901250 -120.452141 227 264ft 0kts
01-Aug-20 19:13 34.901250 -120.452141 227 264ft 0kts
01-Aug-20 19:14 34.901250 -120.452141 227 264ft 0kts
01-Aug-20 19:15 34.901250 -120.452141 227 264ft 0kts
01-Aug-20 19:16 34.901250 -120.452141 227 264ft 0kts
01-Aug-20 19:17 34.901250 -120.452141 227 264ft 0kts
01-Aug-20 19:18 34.901250 -120.452141 227 264ft 0kts

Navigation Log

Ident Type
Flight plan parsing failed, navigation log unavailable